createdAt,value
2023-02-19T00:01:42.548Z,0.53
2023-02-19T00:04:14.128Z,0.57
2023-02-19T00:06:42.660Z,0.80
2023-02-19T00:09:11.493Z,0.50
2023-02-19T00:11:39.491Z,0.50
2023-02-19T00:14:09.451Z,0.73
2023-02-19T00:16:39.451Z,0.70
2023-02-19T00:19:08.931Z,0.50
2023-02-19T00:21:36.504Z,0.87
2023-02-19T00:24:06.750Z,0.60
2023-02-19T00:26:34.437Z,0.73
2023-02-19T00:29:02.619Z,1.03
2023-02-19T00:31:33.646Z,0.93
2023-02-19T00:34:03.027Z,0.60
2023-02-19T00:36:32.583Z,0.90
2023-02-19T00:39:00.160Z,0.93
2023-02-19T00:41:29.287Z,1.10
2023-02-19T00:43:59.136Z,1.70
2023-02-19T00:46:29.395Z,0.80
2023-02-19T00:48:59.001Z,0.90
2023-02-19T00:51:29.131Z,0.63
2023-02-19T00:53:56.936Z,0.57
2023-02-19T00:56:25.313Z,0.87
2023-02-19T00:58:53.297Z,1.00
2023-02-19T01:01:22.108Z,0.93
2023-02-19T01:03:50.108Z,1.03
2023-02-19T01:06:21.154Z,0.67
2023-02-19T01:08:49.232Z,0.73
2023-02-19T01:11:18.660Z,1.07
2023-02-19T01:13:46.239Z,1.27
2023-02-19T01:16:15.869Z,1.00
2023-02-19T01:18:44.586Z,0.40
2023-02-19T01:21:15.069Z,1.07
2023-02-19T01:23:44.199Z,0.87
2023-02-19T01:26:14.643Z,0.80
2023-02-19T01:28:42.644Z,1.03
2023-02-19T01:31:14.855Z,0.87
2023-02-19T01:33:46.907Z,0.90
2023-02-19T01:36:15.604Z,0.70
2023-02-19T01:38:45.296Z,0.97
2023-02-19T01:41:16.046Z,0.60
2023-02-19T01:44:01.986Z,1.57
2023-02-19T01:46:32.577Z,0.53
2023-02-19T01:49:05.353Z,1.10
2023-02-19T01:51:34.926Z,0.90
2023-02-19T01:54:06.698Z,0.57
2023-02-19T01:56:36.830Z,0.80
2023-02-19T01:59:04.444Z,1.83
2023-02-19T02:01:32.672Z,0.53
2023-02-19T02:04:01.478Z,1.10
2023-02-19T02:06:32.001Z,1.53
2023-02-19T02:09:17.822Z,0.60
2023-02-19T02:11:49.625Z,1.17
2023-02-19T02:14:19.449Z,1.00
2023-02-19T02:16:57.146Z,0.73
2023-02-19T02:19:57.377Z,0.40
2023-02-19T02:22:30.816Z,0.50
2023-02-19T02:25:25.835Z,0.63
2023-02-19T02:28:08.246Z,1.47
2023-02-19T02:30:43.516Z,0.77
2023-02-19T02:33:20.496Z,0.53
2023-02-19T02:35:52.664Z,0.50
2023-02-19T02:38:25.238Z,0.63
2023-02-19T02:40:55.896Z,1.23
2023-02-19T02:43:25.616Z,0.53
2023-02-19T02:45:55.060Z,0.50
2023-02-19T02:48:34.309Z,0.93
2023-02-19T02:51:14.518Z,0.60
2023-02-19T02:54:12.226Z,0.50
2023-02-19T02:56:42.614Z,0.60
2023-02-19T02:59:13.417Z,0.83
2023-02-19T03:02:04.006Z,1.00
2023-02-19T03:04:58.934Z,0.93
2023-02-19T03:07:31.161Z,0.70
2023-02-19T03:10:01.069Z,1.27
2023-02-19T03:12:49.964Z,1.17
2023-02-19T03:15:35.975Z,0.80
2023-02-19T03:18:28.425Z,0.80
2023-02-19T03:20:58.943Z,0.70
2023-02-19T03:23:45.366Z,0.80
2023-02-19T03:26:14.673Z,1.20
2023-02-19T03:29:11.911Z,1.30
2023-02-19T03:31:46.127Z,1.20
2023-02-19T03:34:18.380Z,1.50
2023-02-19T03:36:52.413Z,0.80
2023-02-19T03:39:23.769Z,0.87
2023-02-19T03:41:59.151Z,0.67
2023-02-19T03:44:37.135Z,2.30
2023-02-19T03:47:08.164Z,1.20
2023-02-19T03:49:47.831Z,1.10
2023-02-19T03:52:25.401Z,1.00
2023-02-19T03:55:00.250Z,0.53
2023-02-19T03:57:39.168Z,1.20
2023-02-19T04:00:12.728Z,1.27
2023-02-19T04:02:45.779Z,1.63
2023-02-19T04:05:19.785Z,1.00
2023-02-19T04:07:53.555Z,0.67
2023-02-19T04:10:27.437Z,1.00
2023-02-19T04:13:01.193Z,1.27
2023-02-19T04:15:32.685Z,1.50
2023-02-19T04:18:03.936Z,1.43
2023-02-19T04:20:37.905Z,2.03
2023-02-19T04:23:06.476Z,1.30
2023-02-19T04:25:35.373Z,1.33
2023-02-19T04:28:03.680Z,1.77
2023-02-19T04:30:31.322Z,1.30
2023-02-19T04:32:59.384Z,1.53
2023-02-19T04:35:27.072Z,1.57
2023-02-19T04:37:56.589Z,1.47
2023-02-19T04:40:24.161Z,1.33
2023-02-19T04:42:52.225Z,1.43
2023-02-19T04:45:19.813Z,1.43
2023-02-19T04:47:47.388Z,2.03
2023-02-19T04:50:15.169Z,1.80
2023-02-19T04:52:43.157Z,1.53
2023-02-19T04:55:12.094Z,1.07
2023-02-19T04:57:40.269Z,1.17
2023-02-19T05:00:09.620Z,1.40
2023-02-19T05:02:37.277Z,1.50
2023-02-19T05:05:05.834Z,2.50
2023-02-19T05:07:34.128Z,1.47
2023-02-19T05:10:01.875Z,1.93
2023-02-19T05:12:32.004Z,1.00
2023-02-19T05:14:59.924Z,1.77
2023-02-19T05:17:27.520Z,1.73
2023-02-19T05:19:55.227Z,1.57
2023-02-19T05:22:22.783Z,1.53
2023-02-19T05:24:50.696Z,1.40
2023-02-19T05:27:18.268Z,1.30
2023-02-19T05:29:47.848Z,1.77
2023-02-19T05:32:15.563Z,1.53
2023-02-19T05:34:43.392Z,2.70
2023-02-19T05:37:11.135Z,1.17
2023-02-19T05:39:39.404Z,1.67
2023-02-19T05:42:06.957Z,1.23
2023-02-19T05:44:34.714Z,1.53
2023-02-19T05:47:03.611Z,1.80
2023-02-19T05:49:31.730Z,1.83
2023-02-19T05:51:59.287Z,1.77
2023-02-19T05:54:30.009Z,0.87
2023-02-19T05:56:57.616Z,1.73
2023-02-19T05:59:27.756Z,1.20
2023-02-19T06:01:58.173Z,1.73
2023-02-19T06:04:27.491Z,1.73
2023-02-19T06:06:55.054Z,1.30
2023-02-19T06:09:22.814Z,1.87
2023-02-19T06:11:50.432Z,1.30
2023-02-19T06:14:18.822Z,1.40
2023-02-19T06:16:46.367Z,1.60
2023-02-19T06:19:14.253Z,2.67
2023-02-19T06:21:43.133Z,1.60
2023-02-19T06:24:11.722Z,2.17
2023-02-19T06:26:39.357Z,1.00
2023-02-19T06:29:07.955Z,1.87
2023-02-19T06:31:35.604Z,2.13
2023-02-19T06:34:05.406Z,1.50
2023-02-19T06:36:32.973Z,1.37
2023-02-19T06:39:02.773Z,1.50
2023-02-19T06:41:30.339Z,1.60
2023-02-19T06:43:58.769Z,1.23
2023-02-19T06:46:26.636Z,1.77
2023-02-19T06:48:54.498Z,1.93
2023-02-19T06:51:24.555Z,3.03
2023-02-19T06:53:52.137Z,2.13
2023-02-19T06:56:26.735Z,1.80
2023-02-19T06:58:55.085Z,1.40
2023-02-19T07:01:23.365Z,1.60
2023-02-19T07:03:52.382Z,1.30
2023-02-19T07:06:20.478Z,1.37
2023-02-19T07:08:48.237Z,1.23
2023-02-19T07:11:16.277Z,2.00
2023-02-19T07:13:45.837Z,1.80
2023-02-19T07:16:13.946Z,1.70
2023-02-19T07:18:41.861Z,2.40
2023-02-19T07:21:12.727Z,1.77
2023-02-19T07:23:41.007Z,2.63
2023-02-19T07:26:11.457Z,2.13
2023-02-19T07:28:39.186Z,2.30
2023-02-19T07:31:08.519Z,1.83
2023-02-19T07:33:36.159Z,2.80
2023-02-19T07:36:04.523Z,4.00
2023-02-19T07:38:32.110Z,1.80
2023-02-19T07:41:01.711Z,2.10
2023-02-19T07:43:32.208Z,2.83
2023-02-19T07:46:00.514Z,2.60
2023-02-19T07:48:29.429Z,2.13
2023-02-19T07:50:59.080Z,2.83
2023-02-19T07:53:28.845Z,3.00
2023-02-19T07:56:01.677Z,2.03
2023-02-19T07:58:29.683Z,2.30
2023-02-19T08:00:57.872Z,2.90
2023-02-19T08:03:24.521Z,1.87
2023-02-19T08:05:54.923Z,2.63
2023-02-19T08:08:22.643Z,3.10
2023-02-19T08:11:08.596Z,2.83
2023-02-19T08:13:36.306Z,3.17
2023-02-19T08:16:21.885Z,1.87
2023-02-19T08:18:54.753Z,1.57
2023-02-19T08:21:24.760Z,1.27
2023-02-19T08:23:52.350Z,3.00
2023-02-19T08:26:20.661Z,2.03
2023-02-19T08:28:49.760Z,1.87
2023-02-19T08:31:17.726Z,1.90
2023-02-19T08:33:45.367Z,1.37
2023-02-19T08:36:13.608Z,1.93
2023-02-19T08:38:42.533Z,1.37
2023-02-19T08:41:12.700Z,1.40
2023-02-19T08:43:41.284Z,1.70
2023-02-19T08:46:10.554Z,0.93
2023-02-19T08:48:38.927Z,1.07
2023-02-19T08:51:09.523Z,0.83
2023-02-19T08:53:39.348Z,1.30
2023-02-19T08:56:09.995Z,0.93
2023-02-19T08:58:38.316Z,0.80
2023-02-19T09:01:10.121Z,0.70
2023-02-19T09:03:37.970Z,0.70
2023-02-19T09:06:06.259Z,0.33
2023-02-19T09:08:33.962Z,0.67
2023-02-19T09:11:02.157Z,0.70
2023-02-19T09:13:31.492Z,0.10
2023-02-19T09:15:59.341Z,0.20
2023-02-19T09:18:27.899Z,0.10
2023-02-19T09:20:55.480Z,0.20
2023-02-19T09:23:23.593Z,0.27
2023-02-19T09:25:58.486Z,0.13
2023-02-19T09:28:26.498Z,0.10
2023-02-19T09:30:55.959Z,0.17
2023-02-19T09:33:24.192Z,0.10
2023-02-19T09:35:51.923Z,0.00
2023-02-19T09:38:19.673Z,0.10
2023-02-19T09:40:47.344Z,0.20
2023-02-19T09:43:19.595Z,0.10
2023-02-19T09:45:47.367Z,0.20
2023-02-19T09:48:16.295Z,0.10
2023-02-19T09:50:48.522Z,0.30
2023-02-19T09:53:21.844Z,0.20
2023-02-19T09:55:50.126Z,0.10
2023-02-19T09:58:27.353Z,0.27
2023-02-19T10:00:57.103Z,0.10
2023-02-19T10:03:31.812Z,0.07
2023-02-19T10:06:01.734Z,0.17
2023-02-19T10:08:34.160Z,0.10
2023-02-19T10:11:04.100Z,0.30
2023-02-19T10:13:35.584Z,0.00
2023-02-19T10:16:05.537Z,0.00
2023-02-19T10:18:39.230Z,0.07
2023-02-19T10:21:07.335Z,0.00
2023-02-19T10:23:35.245Z,0.00
2023-02-19T10:26:02.862Z,0.00
2023-02-19T10:28:33.543Z,0.10
2023-02-19T10:31:02.981Z,0.00
2023-02-19T10:33:31.369Z,0.00
2023-02-19T10:36:03.352Z,0.13
2023-02-19T10:38:34.770Z,0.00
2023-02-19T10:41:07.059Z,0.10
2023-02-19T10:43:39.822Z,0.00
2023-02-19T10:46:09.136Z,0.10
2023-02-19T10:48:39.536Z,0.20
2023-02-19T10:51:12.335Z,0.10
2023-02-19T10:53:46.337Z,0.00
2023-02-19T10:56:16.223Z,0.10
2023-02-19T10:58:47.497Z,0.00
2023-02-19T11:01:19.590Z,0.00
2023-02-19T11:03:48.897Z,0.10
2023-02-19T11:06:21.193Z,0.00
2023-02-19T11:08:56.913Z,0.00
2023-02-19T11:11:33.725Z,0.10
2023-02-19T11:14:06.937Z,0.10
2023-02-19T11:16:43.879Z,0.07
2023-02-19T11:19:27.124Z,0.10
2023-02-19T11:21:57.415Z,0.10
2023-02-19T11:24:35.103Z,0.13
2023-02-19T11:27:05.082Z,0.10
2023-02-19T11:29:35.777Z,0.10
2023-02-19T11:32:26.383Z,0.00
2023-02-19T11:35:14.295Z,0.10
2023-02-19T11:37:55.133Z,0.10
2023-02-19T11:40:26.800Z,0.27
2023-02-19T11:43:01.710Z,0.10
2023-02-19T11:45:39.068Z,0.10
2023-02-19T11:48:30.247Z,0.10
2023-02-19T11:51:14.875Z,0.63
2023-02-19T11:53:49.856Z,0.20
2023-02-19T11:56:20.339Z,0.10
2023-02-19T11:59:06.460Z,0.10
2023-02-19T12:02:00.422Z,0.30
2023-02-19T12:04:53.803Z,0.20
2023-02-19T12:07:36.984Z,0.10
2023-02-19T12:10:14.748Z,0.10
2023-02-19T12:12:56.872Z,0.20
2023-02-19T12:15:36.394Z,0.10
2023-02-19T12:18:29.182Z,0.10
2023-02-19T12:21:13.291Z,0.13
2023-02-19T12:24:04.000Z,0.17
2023-02-19T12:26:41.183Z,0.20
2023-02-19T12:29:26.098Z,0.10
2023-02-19T12:32:14.845Z,0.10
2023-02-19T12:35:12.473Z,0.20
2023-02-19T12:37:48.428Z,0.10
2023-02-19T12:40:29.457Z,0.10
2023-02-19T12:43:10.352Z,0.10
2023-02-19T12:45:43.875Z,0.10
2023-02-19T12:48:19.548Z,0.20
2023-02-19T12:50:52.232Z,0.10
2023-02-19T12:53:32.434Z,0.10
2023-02-19T12:56:05.515Z,0.10
2023-02-19T12:58:41.485Z,0.10
2023-02-19T13:01:15.004Z,0.10
2023-02-19T13:03:50.252Z,0.10
2023-02-19T13:06:27.969Z,0.10
2023-02-19T13:09:07.221Z,0.10
2023-02-19T13:11:40.483Z,0.10
2023-02-19T13:14:19.543Z,0.60
2023-02-19T13:16:53.554Z,0.20
2023-02-19T13:19:21.160Z,0.20
2023-02-19T13:22:14.876Z,0.20
2023-02-19T13:24:45.928Z,0.10
2023-02-19T13:27:31.940Z,0.30
2023-02-19T13:30:11.445Z,0.10
2023-02-19T13:32:54.104Z,0.10
2023-02-19T13:35:38.806Z,0.53
2023-02-19T13:38:07.679Z,0.73
2023-02-19T13:40:39.174Z,0.00
2023-02-19T13:43:21.616Z,0.63
2023-02-19T13:45:56.869Z,0.10
2023-02-19T13:48:30.471Z,1.13
2023-02-19T13:51:36.673Z,0.33
2023-02-19T13:54:15.332Z,0.17
2023-02-19T13:56:43.800Z,0.10
2023-02-19T13:59:24.916Z,0.30
2023-02-19T14:02:30.896Z,0.10
2023-02-19T14:05:01.096Z,0.30
2023-02-19T14:08:02.097Z,0.67
2023-02-19T14:11:03.700Z,0.10
2023-02-19T14:13:57.989Z,0.37
2023-02-19T14:16:52.748Z,1.03
2023-02-19T14:19:50.266Z,0.20
2023-02-19T14:22:51.294Z,0.30
2023-02-19T14:25:35.347Z,0.10
2023-02-19T14:28:07.268Z,0.50
2023-02-19T14:30:41.863Z,0.20
2023-02-19T14:33:12.001Z,0.30
2023-02-19T14:35:43.977Z,0.37
2023-02-19T14:38:19.108Z,0.30
2023-02-19T14:40:49.425Z,0.17
2023-02-19T14:43:19.737Z,0.10
2023-02-19T14:45:50.296Z,0.30
2023-02-19T14:48:22.844Z,0.30
2023-02-19T14:50:56.165Z,1.07
2023-02-19T14:53:25.351Z,0.10
2023-02-19T14:55:55.858Z,0.10
2023-02-19T14:58:27.124Z,0.30
2023-02-19T15:00:55.543Z,0.20
2023-02-19T15:03:27.609Z,0.17
2023-02-19T15:05:59.712Z,0.20
2023-02-19T15:08:34.146Z,0.17
2023-02-19T15:11:05.268Z,0.20
2023-02-19T15:13:32.956Z,0.20
2023-02-19T15:16:01.003Z,0.20
2023-02-19T15:18:29.893Z,0.60
2023-02-19T15:21:05.936Z,0.23
2023-02-19T15:23:37.187Z,0.20
2023-02-19T15:26:05.003Z,0.20
2023-02-19T15:28:34.992Z,0.30
2023-02-19T15:31:08.293Z,0.20
2023-02-19T15:33:36.049Z,0.50
2023-02-19T15:36:07.830Z,0.30
2023-02-19T15:38:35.931Z,1.80
2023-02-19T15:41:04.528Z,0.23
2023-02-19T15:43:39.140Z,0.30
2023-02-19T15:46:15.897Z,0.20
2023-02-19T15:48:49.239Z,0.23
2023-02-19T15:51:25.095Z,0.10
2023-02-19T15:53:57.366Z,0.13
2023-02-19T15:56:30.382Z,0.27
2023-02-19T15:59:02.883Z,0.10
2023-02-19T16:01:31.967Z,0.23
2023-02-19T16:04:00.093Z,0.20
2023-02-19T16:06:30.449Z,0.20
2023-02-19T16:09:03.277Z,0.10
2023-02-19T16:11:36.438Z,0.40
2023-02-19T16:14:25.279Z,0.30
2023-02-19T16:16:56.796Z,0.10
2023-02-19T16:19:28.496Z,0.20
2023-02-19T16:21:59.735Z,0.20
2023-02-19T16:24:31.024Z,0.20
2023-02-19T16:26:59.498Z,0.20
2023-02-19T16:29:29.943Z,0.10
2023-02-19T16:31:59.686Z,0.10
2023-02-19T16:34:40.237Z,0.40
2023-02-19T16:37:34.664Z,0.30
2023-02-19T16:40:50.687Z,0.47
2023-02-19T16:43:28.132Z,0.17
2023-02-19T16:45:55.833Z,0.20
2023-02-19T16:48:24.449Z,0.10
2023-02-19T16:50:52.442Z,0.20
2023-02-19T16:53:24.739Z,0.20
2023-02-19T16:55:52.722Z,0.77
2023-02-19T16:58:20.517Z,0.27
2023-02-19T17:00:48.553Z,0.27
2023-02-19T17:03:20.419Z,0.10
2023-02-19T17:05:48.671Z,0.33
2023-02-19T17:08:36.981Z,0.20
2023-02-19T17:11:06.362Z,0.23
2023-02-19T17:13:34.339Z,0.60
2023-02-19T17:16:02.383Z,0.20
2023-02-19T17:18:30.510Z,0.23
2023-02-19T17:21:02.322Z,0.50
2023-02-19T17:23:30.526Z,0.20
2023-02-19T17:25:59.496Z,0.50
2023-02-19T17:28:27.384Z,0.27
2023-02-19T17:30:55.153Z,0.30
2023-02-19T17:33:23.188Z,0.80
2023-02-19T17:35:50.791Z,0.30
2023-02-19T17:38:18.728Z,0.80
2023-02-19T17:40:46.293Z,0.73
2023-02-19T17:43:15.773Z,0.50
2023-02-19T17:45:43.385Z,0.93
2023-02-19T17:48:14.221Z,0.40
2023-02-19T17:50:42.503Z,0.67
2023-02-19T17:53:10.935Z,1.37
2023-02-19T17:55:38.653Z,0.73
2023-02-19T17:58:06.900Z,0.27
2023-02-19T18:00:36.575Z,0.40
2023-02-19T18:03:04.911Z,0.50
2023-02-19T18:05:32.505Z,1.33
2023-02-19T18:08:00.446Z,0.63
2023-02-19T18:10:30.371Z,0.80
2023-02-19T18:12:57.953Z,0.50
2023-02-19T18:15:27.414Z,0.63
2023-02-19T18:17:58.059Z,0.83
2023-02-19T18:20:31.249Z,0.93
2023-02-19T18:22:59.170Z,0.63
2023-02-19T18:25:27.635Z,0.50
2023-02-19T18:27:55.448Z,0.40
2023-02-19T18:30:23.981Z,0.73
2023-02-19T18:32:52.203Z,1.07
2023-02-19T18:35:21.915Z,0.50
2023-02-19T18:37:51.728Z,0.30
2023-02-19T18:40:20.606Z,0.77
2023-02-19T18:42:48.304Z,0.50
2023-02-19T18:45:18.298Z,0.93
2023-02-19T18:47:47.604Z,0.60
2023-02-19T18:50:16.314Z,1.93
2023-02-19T18:52:46.399Z,0.70
2023-02-19T18:55:14.327Z,0.77
2023-02-19T18:57:41.985Z,0.60
2023-02-19T19:00:11.032Z,0.40
2023-02-19T19:02:48.875Z,0.50
2023-02-19T19:05:21.217Z,0.60
2023-02-19T19:07:50.363Z,0.27
2023-02-19T19:10:19.237Z,0.50
2023-02-19T19:12:46.825Z,0.50
2023-02-19T19:15:18.068Z,0.80
2023-02-19T19:17:46.149Z,0.57
2023-02-19T19:20:14.801Z,0.80
2023-02-19T19:22:42.432Z,0.80
2023-02-19T19:25:11.851Z,0.87
2023-02-19T19:27:39.452Z,0.53
2023-02-19T19:30:08.768Z,0.20
2023-02-19T19:32:36.399Z,1.73
2023-02-19T19:35:04.504Z,0.33
2023-02-19T19:37:32.202Z,0.50
2023-02-19T19:40:00.195Z,1.37
2023-02-19T19:42:29.133Z,0.40
2023-02-19T19:44:57.324Z,1.60
2023-02-19T19:47:24.936Z,0.70
2023-02-19T19:49:53.097Z,0.60
2023-02-19T19:52:20.724Z,0.60
2023-02-19T19:54:48.676Z,0.83
2023-02-19T19:57:17.020Z,1.10
2023-02-19T19:59:49.680Z,0.47
2023-02-19T20:02:18.123Z,0.40
2023-02-19T20:04:45.796Z,0.93
2023-02-19T20:07:13.779Z,0.53
2023-02-19T20:09:41.568Z,0.70
2023-02-19T20:12:11.583Z,0.63
2023-02-19T20:14:39.599Z,0.63
2023-02-19T20:17:09.859Z,0.53
2023-02-19T20:19:37.491Z,3.13
2023-02-19T20:22:05.208Z,0.60
2023-02-19T20:24:32.865Z,0.67
2023-02-19T20:27:02.576Z,1.00
2023-02-19T20:29:32.938Z,1.43
2023-02-19T20:32:03.446Z,0.70
2023-02-19T20:34:33.016Z,0.60
2023-02-19T20:37:00.968Z,0.60
2023-02-19T20:39:29.840Z,0.33
2023-02-19T20:41:58.457Z,0.70
2023-02-19T20:44:27.130Z,0.93
2023-02-19T20:46:56.266Z,1.27
2023-02-19T20:49:27.040Z,0.77
2023-02-19T20:51:58.046Z,1.13
2023-02-19T20:54:28.107Z,0.97
2023-02-19T20:56:57.545Z,0.93
2023-02-19T20:59:30.433Z,1.27
2023-02-19T21:01:59.109Z,0.60
2023-02-19T21:04:27.308Z,0.80
2023-02-19T21:06:56.332Z,1.07
2023-02-19T21:09:24.460Z,0.87
2023-02-19T21:11:53.041Z,1.60
2023-02-19T21:14:20.651Z,0.97
2023-02-19T21:16:48.330Z,1.17
2023-02-19T21:19:16.000Z,1.87
2023-02-19T21:21:43.771Z,1.40
2023-02-19T21:24:14.804Z,0.70
2023-02-19T21:26:43.603Z,1.33
2023-02-19T21:29:16.533Z,1.80
2023-02-19T21:31:46.449Z,0.93
2023-02-19T21:34:16.314Z,0.50
2023-02-19T21:36:44.583Z,0.80
2023-02-19T21:39:15.949Z,1.03
2023-02-19T21:41:43.559Z,2.33
2023-02-19T21:44:11.700Z,1.27
2023-02-19T21:46:40.160Z,0.53
2023-02-19T21:49:07.760Z,0.87
2023-02-19T21:51:37.756Z,0.50
2023-02-19T21:54:06.317Z,1.53
2023-02-19T21:56:36.948Z,0.60
2023-02-19T21:59:05.859Z,0.73
2023-02-19T22:01:38.838Z,1.13
2023-02-19T22:04:08.181Z,0.60
2023-02-19T22:06:36.809Z,1.17
2023-02-19T22:09:04.740Z,1.37
2023-02-19T22:11:32.352Z,1.30
2023-02-19T22:14:01.784Z,1.47
2023-02-19T22:16:29.640Z,1.07
2023-02-19T22:18:59.989Z,1.27
2023-02-19T22:21:32.248Z,1.23
2023-02-19T22:24:01.957Z,0.87
2023-02-19T22:26:32.291Z,0.43
2023-02-19T22:29:05.914Z,1.13
2023-02-19T22:31:34.074Z,0.80
2023-02-19T22:34:02.553Z,1.57
2023-02-19T22:36:32.031Z,1.27
2023-02-19T22:39:00.576Z,0.60
2023-02-19T22:41:28.636Z,0.93
2023-02-19T22:43:57.260Z,0.80
2023-02-19T22:46:28.696Z,0.50
2023-02-19T22:48:57.512Z,0.83
2023-02-19T22:51:25.815Z,0.63
2023-02-19T22:53:55.606Z,0.60
2023-02-19T22:56:24.743Z,1.07
2023-02-19T22:58:53.632Z,0.63
2023-02-19T23:01:21.827Z,0.80
2023-02-19T23:03:54.157Z,0.67
2023-02-19T23:06:24.245Z,0.43
2023-02-19T23:08:53.214Z,0.90
2023-02-19T23:11:22.476Z,0.53
2023-02-19T23:13:50.382Z,0.50
2023-02-19T23:16:18.535Z,0.50
2023-02-19T23:18:46.537Z,0.47
2023-02-19T23:21:16.068Z,0.50
2023-02-19T23:23:45.214Z,0.87
2023-02-19T23:26:14.631Z,0.70
2023-02-19T23:28:44.383Z,1.73
2023-02-19T23:31:12.842Z,0.50
2023-02-19T23:33:41.705Z,0.50
2023-02-19T23:36:10.919Z,0.53
2023-02-19T23:38:40.559Z,0.70
2023-02-19T23:41:10.721Z,1.20
2023-02-19T23:43:39.635Z,0.60
2023-02-19T23:46:07.638Z,0.40
2023-02-19T23:48:35.821Z,0.60
2023-02-19T23:51:03.458Z,0.60
2023-02-19T23:53:31.404Z,0.40
2023-02-19T23:56:00.618Z,0.63
2023-02-19T23:58:28.607Z,0.70
